createdAt,value
2023-01-27T00:02:38.636Z,7.30
2023-01-27T00:05:26.460Z,7.73
2023-01-27T00:08:13.176Z,7.90
2023-01-27T00:11:18.443Z,7.07
2023-01-27T00:14:04.974Z,7.90
2023-01-27T00:16:51.262Z,7.87
2023-01-27T00:19:37.695Z,7.03
2023-01-27T00:22:42.879Z,6.80
2023-01-27T00:25:29.068Z,6.37
2023-01-27T00:28:23.050Z,7.60
2023-01-27T00:31:29.809Z,7.93
2023-01-27T00:34:16.015Z,7.47
2023-01-27T00:37:02.276Z,6.83
2023-01-27T00:39:48.559Z,8.33
2023-01-27T00:42:35.230Z,7.13
2023-01-27T00:45:50.788Z,6.70
2023-01-27T00:48:37.175Z,6.77
2023-01-27T00:51:24.172Z,6.37
2023-01-27T00:54:11.286Z,6.67
2023-01-27T00:56:57.422Z,8.17
2023-01-27T00:59:43.704Z,9.50
2023-01-27T01:02:30.050Z,7.50
2023-01-27T01:05:16.410Z,7.93
2023-01-27T01:08:02.824Z,7.83
2023-01-27T01:10:49.376Z,7.73
2023-01-27T01:13:36.045Z,7.53
2023-01-27T01:16:23.649Z,7.70
2023-01-27T01:19:10.421Z,7.20
2023-01-27T01:21:56.635Z,9.33
2023-01-27T01:24:42.905Z,7.53
2023-01-27T01:27:29.703Z,8.57
2023-01-27T01:30:17.332Z,7.23
2023-01-27T01:33:04.043Z,7.67
2023-01-27T01:35:50.808Z,7.07
2023-01-27T01:38:37.380Z,7.63
2023-01-27T01:41:23.997Z,9.23
2023-01-27T01:44:23.882Z,8.10
2023-01-27T01:47:16.533Z,7.40
2023-01-27T01:50:02.738Z,8.10
2023-01-27T01:52:49.582Z,8.20
2023-01-27T01:55:37.874Z,8.53
2023-01-27T01:58:28.016Z,8.47
2023-01-27T02:01:16.463Z,8.43
2023-01-27T02:04:09.437Z,8.47
2023-01-27T02:07:05.696Z,7.43
2023-01-27T02:09:54.648Z,8.87
2023-01-27T02:12:41.038Z,7.10
2023-01-27T02:15:30.144Z,7.10
2023-01-27T02:18:16.496Z,6.30
2023-01-27T02:21:03.219Z,5.60
2023-01-27T02:23:56.104Z,7.07
2023-01-27T02:26:44.261Z,6.23
2023-01-27T02:29:30.726Z,7.63
2023-01-27T02:32:25.409Z,5.77
2023-01-27T02:35:24.301Z,6.13
2023-01-27T02:38:13.062Z,7.10
2023-01-27T02:41:05.966Z,6.60
2023-01-27T02:43:52.622Z,6.47
2023-01-27T02:46:40.067Z,7.37
2023-01-27T02:49:27.231Z,6.17
2023-01-27T02:52:13.964Z,6.17
2023-01-27T02:55:00.274Z,5.60
2023-01-27T02:57:46.499Z,5.13
2023-01-27T03:00:51.936Z,5.43
2023-01-27T03:03:44.112Z,5.87
2023-01-27T03:06:30.823Z,5.97
2023-01-27T03:09:17.962Z,6.33
2023-01-27T03:12:22.873Z,5.27
2023-01-27T03:15:29.373Z,5.90
2023-01-27T03:18:16.246Z,5.40
2023-01-27T03:21:05.783Z,5.57
2023-01-27T03:23:52.914Z,6.07
2023-01-27T03:26:42.019Z,5.27
2023-01-27T03:29:48.788Z,6.67
2023-01-27T03:32:35.937Z,5.53
2023-01-27T03:36:10.354Z,5.47
2023-01-27T03:39:21.366Z,5.20
2023-01-27T03:42:26.348Z,5.10
2023-01-27T03:45:33.468Z,5.13
2023-01-27T03:48:20.966Z,5.70
2023-01-27T03:51:09.490Z,6.43
2023-01-27T03:53:55.995Z,5.30
2023-01-27T03:56:42.682Z,4.73
2023-01-27T03:59:28.882Z,6.87
2023-01-27T04:02:34.231Z,5.60
2023-01-27T04:05:39.055Z,6.07
2023-01-27T04:08:26.401Z,5.83
2023-01-27T04:11:31.994Z,5.90
2023-01-27T04:14:18.328Z,5.20
2023-01-27T04:17:04.473Z,10.17
2023-01-27T04:19:50.875Z,5.93
2023-01-27T04:22:37.402Z,6.40
2023-01-27T04:25:23.946Z,5.47
2023-01-27T04:28:10.467Z,5.13
2023-01-27T04:30:58.914Z,5.97
2023-01-27T04:33:45.908Z,6.37
2023-01-27T04:36:32.553Z,5.47
2023-01-27T04:39:19.345Z,5.77
2023-01-27T04:42:06.235Z,6.03
2023-01-27T04:44:52.490Z,6.43
2023-01-27T04:47:38.926Z,5.53
2023-01-27T04:50:25.516Z,5.60
2023-01-27T04:53:12.287Z,6.00
2023-01-27T04:56:07.955Z,5.63
2023-01-27T04:58:57.546Z,5.50
2023-01-27T05:01:43.763Z,5.37
2023-01-27T05:04:30.513Z,6.20
2023-01-27T05:07:17.160Z,5.63
2023-01-27T05:10:03.368Z,5.20
2023-01-27T05:12:49.700Z,4.87
2023-01-27T05:15:35.898Z,5.20
2023-01-27T05:18:22.161Z,6.17
2023-01-27T05:21:12.309Z,5.97
2023-01-27T05:23:59.137Z,6.30
2023-01-27T05:26:45.777Z,6.07
2023-01-27T05:29:31.946Z,5.63
2023-01-27T05:32:18.523Z,6.20
2023-01-27T05:35:05.214Z,6.63
2023-01-27T05:37:51.714Z,7.13
2023-01-27T05:40:38.270Z,6.70
2023-01-27T05:43:25.936Z,6.27
2023-01-27T05:46:18.468Z,5.27
2023-01-27T05:49:05.589Z,6.00
2023-01-27T05:51:51.766Z,6.33
2023-01-27T05:54:38.261Z,5.27
2023-01-27T05:57:24.725Z,6.97
2023-01-27T06:00:11.627Z,5.90
2023-01-27T06:02:58.024Z,6.80
2023-01-27T06:05:56.348Z,5.30
2023-01-27T06:08:42.841Z,5.53
2023-01-27T06:11:29.035Z,5.77
2023-01-27T06:14:15.349Z,6.20
2023-01-27T06:17:01.659Z,5.87
2023-01-27T06:19:47.886Z,7.30
2023-01-27T06:22:34.272Z,5.80
2023-01-27T06:25:20.390Z,6.60
2023-01-27T06:28:09.263Z,6.07
2023-01-27T06:30:56.528Z,5.43
2023-01-27T06:33:43.635Z,6.23
2023-01-27T06:36:30.121Z,5.87
2023-01-27T06:39:16.659Z,6.33
2023-01-27T06:42:04.714Z,5.30
2023-01-27T06:44:51.268Z,5.83
2023-01-27T06:47:39.029Z,5.97
2023-01-27T06:50:27.319Z,5.87
2023-01-27T06:53:13.876Z,4.93
2023-01-27T06:56:01.343Z,5.77
2023-01-27T06:58:47.889Z,5.30
2023-01-27T07:01:35.185Z,5.80
2023-01-27T07:04:21.909Z,6.03
2023-01-27T07:07:08.372Z,6.57
2023-01-27T07:09:54.687Z,5.57
2023-01-27T07:12:41.278Z,5.27
2023-01-27T07:15:28.431Z,5.80
2023-01-27T07:18:14.960Z,4.93
2023-01-27T07:21:05.348Z,7.70
2023-01-27T07:23:51.737Z,6.50
2023-01-27T07:26:38.522Z,5.43
2023-01-27T07:29:24.949Z,5.73
2023-01-27T07:32:11.183Z,5.50
2023-01-27T07:34:57.554Z,5.77
2023-01-27T07:37:44.648Z,6.37
2023-01-27T07:40:31.046Z,7.57
2023-01-27T07:43:17.518Z,6.40
2023-01-27T07:46:06.329Z,5.60
2023-01-27T07:48:53.010Z,5.33
2023-01-27T07:51:39.403Z,5.77
2023-01-27T07:54:26.114Z,5.60
2023-01-27T07:57:12.275Z,6.07
2023-01-27T07:59:58.576Z,5.33
2023-01-27T08:02:45.245Z,5.13
2023-01-27T08:05:33.435Z,5.70
2023-01-27T08:08:19.986Z,5.23
2023-01-27T08:11:08.636Z,5.30
2023-01-27T08:13:54.776Z,5.13
2023-01-27T08:16:41.151Z,5.27
2023-01-27T08:19:27.427Z,5.13
2023-01-27T08:22:19.603Z,6.20
2023-01-27T08:25:06.247Z,5.00
2023-01-27T08:27:54.573Z,5.63
2023-01-27T08:30:41.011Z,5.97
2023-01-27T08:33:27.345Z,6.10
2023-01-27T08:36:17.039Z,5.23
2023-01-27T08:39:03.854Z,5.60
2023-01-27T08:41:51.367Z,4.93
2023-01-27T08:44:37.537Z,4.97
2023-01-27T08:47:23.982Z,4.60
2023-01-27T08:50:10.977Z,4.37
2023-01-27T08:53:00.741Z,4.23
2023-01-27T08:55:46.961Z,5.23
2023-01-27T08:58:33.597Z,5.20
2023-01-27T09:01:20.729Z,5.27
2023-01-27T09:04:07.486Z,4.83
2023-01-27T09:06:54.217Z,4.93
2023-01-27T09:09:40.811Z,4.90
2023-01-27T09:12:27.114Z,5.93
2023-01-27T09:15:14.707Z,5.83
2023-01-27T09:18:01.306Z,5.37
2023-01-27T09:20:47.501Z,5.47
2023-01-27T09:23:34.394Z,4.93
2023-01-27T09:26:21.010Z,5.80
2023-01-27T09:29:07.033Z,5.10
2023-01-27T09:31:53.507Z,4.60
2023-01-27T09:34:39.807Z,5.33
2023-01-27T09:37:27.878Z,5.50
2023-01-27T09:40:29.991Z,5.63
2023-01-27T09:43:51.949Z,4.70
2023-01-27T09:47:02.125Z,5.00
2023-01-27T09:50:16.642Z,5.60
2023-01-27T09:53:21.409Z,4.70
2023-01-27T09:56:32.093Z,4.37
2023-01-27T09:59:49.334Z,4.50
2023-01-27T10:03:05.510Z,5.20
2023-01-27T10:06:33.842Z,4.43
2023-01-27T10:09:35.566Z,3.77
2023-01-27T10:12:36.881Z,4.70
2023-01-27T10:15:39.403Z,4.37
2023-01-27T10:18:45.242Z,3.50
2023-01-27T10:21:58.158Z,4.60
2023-01-27T10:25:27.535Z,3.40
2023-01-27T10:28:20.423Z,3.60
2023-01-27T10:31:17.847Z,4.00
2023-01-27T10:34:13.107Z,3.63
2023-01-27T10:37:05.323Z,3.73
2023-01-27T10:40:25.712Z,4.73
2023-01-27T10:43:24.568Z,3.53
2023-01-27T10:46:32.305Z,4.60
2023-01-27T10:49:25.946Z,4.23
2023-01-27T10:52:25.020Z,4.13
2023-01-27T10:55:22.511Z,3.73
2023-01-27T10:58:25.523Z,4.60
2023-01-27T11:01:21.672Z,4.37
2023-01-27T11:04:28.848Z,4.60
2023-01-27T11:07:19.357Z,6.07
2023-01-27T11:10:09.027Z,5.20
2023-01-27T11:12:56.381Z,5.43
2023-01-27T11:15:43.007Z,4.37
2023-01-27T11:18:32.444Z,4.67
2023-01-27T11:21:22.083Z,6.20
2023-01-27T11:24:26.082Z,5.53
2023-01-27T11:27:28.866Z,5.47
2023-01-27T11:30:22.344Z,5.13
2023-01-27T11:33:18.827Z,5.43
2023-01-27T11:36:06.340Z,4.70
2023-01-27T11:38:55.630Z,5.03
2023-01-27T11:41:48.894Z,5.67
2023-01-27T11:44:36.222Z,5.97
2023-01-27T11:47:30.719Z,6.60
2023-01-27T11:50:20.846Z,5.30
2023-01-27T11:53:16.441Z,5.47
2023-01-27T11:56:09.191Z,4.53
2023-01-27T11:59:04.849Z,5.47
2023-01-27T12:02:02.162Z,5.73
2023-01-27T12:05:14.454Z,4.97
2023-01-27T12:08:04.191Z,4.80
2023-01-27T12:10:50.604Z,4.83
2023-01-27T12:13:36.901Z,4.10
2023-01-27T12:16:45.558Z,5.33
2023-01-27T12:19:36.543Z,4.90
2023-01-27T12:22:22.916Z,4.93
2023-01-27T12:25:24.522Z,4.63
2023-01-27T12:28:24.572Z,4.50
2023-01-27T12:31:24.632Z,4.20
2023-01-27T12:34:36.888Z,4.20
2023-01-27T12:37:29.346Z,4.30
2023-01-27T12:40:25.057Z,4.13
2023-01-27T12:43:15.574Z,4.47
2023-01-27T12:46:16.863Z,6.83
2023-01-27T12:49:14.794Z,4.63
2023-01-27T12:52:08.411Z,3.60
2023-01-27T12:54:56.869Z,4.00
2023-01-27T12:57:43.650Z,4.33
2023-01-27T13:00:31.199Z,4.43
2023-01-27T13:03:21.004Z,4.10
2023-01-27T13:06:08.535Z,4.13
2023-01-27T13:08:54.942Z,3.93
2023-01-27T13:11:41.440Z,4.40
2023-01-27T13:14:30.364Z,4.73
2023-01-27T13:17:29.009Z,4.73
2023-01-27T13:20:30.906Z,4.33
2023-01-27T13:23:21.923Z,4.30
2023-01-27T13:26:08.014Z,3.57
2023-01-27T13:29:09.734Z,3.80
2023-01-27T13:32:18.320Z,3.83
2023-01-27T13:35:26.810Z,3.50
2023-01-27T13:38:22.965Z,3.90
2023-01-27T13:41:18.145Z,4.27
2023-01-27T13:44:17.635Z,3.80
2023-01-27T13:47:12.533Z,3.37
2023-01-27T13:50:20.711Z,3.93
2023-01-27T13:53:19.598Z,4.53
2023-01-27T13:56:16.626Z,3.80
2023-01-27T13:59:31.176Z,4.67
2023-01-27T14:02:46.740Z,3.37
2023-01-27T14:05:39.425Z,4.07
2023-01-27T14:08:50.157Z,4.07
2023-01-27T14:11:46.941Z,3.87
2023-01-27T14:14:57.510Z,3.20
2023-01-27T14:18:05.523Z,3.80
2023-01-27T14:21:06.318Z,3.90
2023-01-27T14:24:06.840Z,3.83
2023-01-27T14:27:08.747Z,4.13
2023-01-27T14:30:12.781Z,3.87
2023-01-27T14:33:14.581Z,2.90
2023-01-27T14:36:21.466Z,3.63
2023-01-27T14:39:20.095Z,5.13
2023-01-27T14:42:30.238Z,4.97
2023-01-27T14:45:40.395Z,3.90
2023-01-27T14:48:51.844Z,3.47
2023-01-27T14:52:22.224Z,3.40
2023-01-27T14:55:31.819Z,4.90
2023-01-27T14:58:24.126Z,4.07
2023-01-27T15:01:39.410Z,4.23
2023-01-27T15:04:37.423Z,4.50
2023-01-27T15:07:51.015Z,4.17
2023-01-27T15:10:49.321Z,4.93
2023-01-27T15:13:38.493Z,4.63
2023-01-27T15:16:43.263Z,4.43
2023-01-27T15:19:45.315Z,4.57
2023-01-27T15:23:13.357Z,4.43
2023-01-27T15:26:06.222Z,4.57
2023-01-27T15:28:53.749Z,5.23
2023-01-27T15:31:40.660Z,4.20
2023-01-27T15:34:28.588Z,5.00
2023-01-27T15:37:26.023Z,5.27
2023-01-27T15:40:17.465Z,5.10
2023-01-27T15:43:08.391Z,5.10
2023-01-27T15:45:55.874Z,3.67
2023-01-27T15:48:42.916Z,4.63
2023-01-27T15:51:34.678Z,5.00
2023-01-27T15:54:27.414Z,4.87
2023-01-27T15:57:35.078Z,4.13
2023-01-27T16:00:32.521Z,4.03
2023-01-27T16:03:37.690Z,4.50
2023-01-27T16:06:25.798Z,3.67
2023-01-27T16:09:35.824Z,6.37
2023-01-27T16:12:28.297Z,4.23
2023-01-27T16:15:32.718Z,4.10
2023-01-27T16:18:25.143Z,5.00
2023-01-27T16:21:28.282Z,5.33
2023-01-27T16:24:41.703Z,5.07
2023-01-27T16:27:41.632Z,3.63
2023-01-27T16:30:33.474Z,4.90
2023-01-27T16:33:29.788Z,4.20
2023-01-27T16:36:29.908Z,4.13
2023-01-27T16:39:27.034Z,3.90
2023-01-27T16:42:15.850Z,4.00
2023-01-27T16:45:34.966Z,4.30
2023-01-27T16:48:43.103Z,5.90
2023-01-27T16:51:29.729Z,5.43
2023-01-27T16:54:32.131Z,6.10
2023-01-27T16:57:29.625Z,5.30
2023-01-27T17:00:25.329Z,4.20
2023-01-27T17:03:19.736Z,4.77
2023-01-27T17:10:55.958Z,5.93
2023-01-27T17:13:51.827Z,5.37
2023-01-27T17:16:49.792Z,5.53
2023-01-27T17:19:37.121Z,4.37
2023-01-27T17:22:25.811Z,4.93
2023-01-27T17:25:37.498Z,4.50
2023-01-27T17:28:27.429Z,4.27
2023-01-27T17:31:19.397Z,4.67
2023-01-27T17:34:05.882Z,4.47
2023-01-27T17:37:08.435Z,4.17
2023-01-27T17:39:57.299Z,5.37
2023-01-27T17:42:44.614Z,5.40
2023-01-27T17:45:34.378Z,4.63
2023-01-27T17:48:20.752Z,4.67
2023-01-27T17:51:08.574Z,4.83
2023-01-27T17:53:56.112Z,4.40
2023-01-27T17:56:42.399Z,5.93
2023-01-27T17:59:28.812Z,5.90
2023-01-27T18:02:19.147Z,5.60
2023-01-27T18:05:15.884Z,4.83
2023-01-27T18:08:04.952Z,6.00
2023-01-27T18:10:51.954Z,6.30
2023-01-27T18:13:41.046Z,5.00
2023-01-27T18:16:31.072Z,4.37
2023-01-27T18:19:23.644Z,5.77
2023-01-27T18:22:17.188Z,5.63
2023-01-27T18:25:03.921Z,5.77
2023-01-27T18:27:53.297Z,6.23
2023-01-27T18:30:47.386Z,7.07
2023-01-27T18:33:34.134Z,6.30
2023-01-27T18:36:25.247Z,4.97
2023-01-27T18:39:40.810Z,6.20
2023-01-27T18:42:29.876Z,5.63
2023-01-27T18:45:16.481Z,5.77
2023-01-27T18:48:03.783Z,6.30
2023-01-27T18:50:50.392Z,6.23
2023-01-27T18:53:36.530Z,7.77
2023-01-27T18:56:23.082Z,6.33
2023-01-27T18:59:13.437Z,5.03
2023-01-27T19:02:00.593Z,7.73
2023-01-27T19:04:47.079Z,7.77
2023-01-27T19:07:33.472Z,13.83
2023-01-27T19:10:25.930Z,10.50
2023-01-27T19:13:14.462Z,8.77
2023-01-27T19:16:00.971Z,6.23
2023-01-27T19:18:47.573Z,6.27
2023-01-27T19:21:34.053Z,5.80
2023-01-27T19:24:20.472Z,7.93
2023-01-27T19:27:11.930Z,11.70
2023-01-27T19:29:59.812Z,19.50
2023-01-27T19:32:46.410Z,25.10
2023-01-27T19:35:32.705Z,13.27
2023-01-27T19:38:19.363Z,6.67
2023-01-27T19:41:06.021Z,7.13
2023-01-27T19:43:52.387Z,7.67
2023-01-27T19:46:40.530Z,5.33
2023-01-27T19:49:26.626Z,5.30
2023-01-27T19:52:12.908Z,5.53
2023-01-27T19:54:59.556Z,6.17
2023-01-27T19:57:48.027Z,4.93
2023-01-27T20:00:36.717Z,5.83
2023-01-27T20:03:23.419Z,14.67
2023-01-27T20:06:19.178Z,23.27
2023-01-27T20:09:05.716Z,6.07
2023-01-27T20:11:52.202Z,5.83
2023-01-27T20:14:38.456Z,7.17
2023-01-27T20:17:24.679Z,7.13
2023-01-27T20:20:13.071Z,8.37
2023-01-27T20:22:59.588Z,6.47
2023-01-27T20:25:45.875Z,7.60
2023-01-27T20:28:32.124Z,5.70
2023-01-27T20:31:20.471Z,6.20
2023-01-27T20:34:07.202Z,6.20
2023-01-27T20:36:54.208Z,5.37
2023-01-27T20:39:40.327Z,5.80
2023-01-27T20:42:26.928Z,5.07
2023-01-27T20:45:13.976Z,11.77
2023-01-27T20:48:00.789Z,10.70
2023-01-27T20:50:47.109Z,7.87
2023-01-27T20:53:36.863Z,6.37
2023-01-27T20:56:24.295Z,5.40
2023-01-27T20:59:10.693Z,6.63
2023-01-27T21:01:57.340Z,5.87
2023-01-27T21:04:43.827Z,4.50
2023-01-27T21:07:29.991Z,2.70
2023-01-27T21:10:18.856Z,2.77
2023-01-27T21:13:05.158Z,3.50
2023-01-27T21:15:51.224Z,2.30
2023-01-27T21:18:37.345Z,2.50
2023-01-27T21:21:27.236Z,3.10
2023-01-27T21:24:13.580Z,3.50
2023-01-27T21:26:59.794Z,2.77
2023-01-27T21:29:46.051Z,3.30
2023-01-27T21:32:32.474Z,3.13
2023-01-27T21:35:19.041Z,2.80
2023-01-27T21:38:05.487Z,2.70
2023-01-27T21:40:53.045Z,2.70
2023-01-27T21:43:57.946Z,3.13
2023-01-27T21:46:44.354Z,2.47
2023-01-27T21:49:33.974Z,3.30
2023-01-27T21:52:21.068Z,3.13
2023-01-27T21:55:15.047Z,3.50
2023-01-27T21:58:01.769Z,3.43
2023-01-27T22:00:48.362Z,5.03
2023-01-27T22:03:37.164Z,3.00
2023-01-27T22:06:23.366Z,3.20
2023-01-27T22:09:10.087Z,3.73
2023-01-27T22:11:56.425Z,3.20
2023-01-27T22:14:43.644Z,2.60
2023-01-27T22:17:29.902Z,2.20
2023-01-27T22:20:17.403Z,2.13
2023-01-27T22:23:03.843Z,3.23
2023-01-27T22:25:51.263Z,2.70
2023-01-27T22:28:37.773Z,2.60
2023-01-27T22:31:24.073Z,2.90
2023-01-27T22:34:11.161Z,2.60
2023-01-27T22:36:57.417Z,2.57
2023-01-27T22:39:44.001Z,2.10
2023-01-27T22:42:30.621Z,2.13
2023-01-27T22:45:17.885Z,2.10
2023-01-27T22:48:04.858Z,2.87
2023-01-27T22:50:51.318Z,3.03
2023-01-27T22:53:37.535Z,2.53
2023-01-27T22:56:23.961Z,3.27
2023-01-27T22:59:13.524Z,2.43
2023-01-27T23:01:59.784Z,2.50
2023-01-27T23:04:45.999Z,2.67
2023-01-27T23:07:32.271Z,2.83
2023-01-27T23:10:18.912Z,3.10
2023-01-27T23:13:05.484Z,2.63
2023-01-27T23:15:51.996Z,2.53
2023-01-27T23:18:39.532Z,2.73
2023-01-27T23:21:25.715Z,2.37
2023-01-27T23:24:12.016Z,2.63
2023-01-27T23:26:58.930Z,2.60
2023-01-27T23:29:45.367Z,2.10
2023-01-27T23:32:31.799Z,2.27
2023-01-27T23:35:18.178Z,2.77
2023-01-27T23:38:07.609Z,2.50
2023-01-27T23:41:01.950Z,3.33
2023-01-27T23:43:52.866Z,2.80
2023-01-27T23:46:40.213Z,2.73
2023-01-27T23:49:26.690Z,2.57
2023-01-27T23:52:13.185Z,2.60
2023-01-27T23:54:59.356Z,2.60
2023-01-27T23:57:45.663Z,2.40
